createdAt,value
2023-05-23T00:01:09.385Z,13.86
2023-05-23T00:03:37.819Z,13.97
2023-05-23T00:06:06.746Z,14.04
2023-05-23T00:08:34.405Z,14.05
2023-05-23T00:11:01.962Z,14.09
2023-05-23T00:13:29.625Z,14.19
2023-05-23T00:15:57.806Z,14.26
2023-05-23T00:18:25.773Z,14.30
2023-05-23T00:20:54.148Z,14.26
2023-05-23T00:23:22.941Z,14.26
2023-05-23T00:25:53.514Z,14.37
2023-05-23T00:28:21.253Z,14.50
2023-05-23T00:30:51.912Z,14.57
2023-05-23T00:33:22.555Z,14.67
2023-05-23T00:35:50.785Z,14.74
2023-05-23T00:38:19.763Z,14.81
2023-05-23T00:40:48.621Z,14.84
2023-05-23T00:43:16.631Z,14.84
2023-05-23T00:45:44.499Z,14.83
2023-05-23T00:48:12.575Z,14.89
2023-05-23T00:50:41.051Z,14.94
2023-05-23T00:53:08.820Z,14.97
2023-05-23T00:55:36.483Z,14.96
2023-05-23T00:58:04.144Z,15.02
2023-05-23T01:00:31.804Z,15.06
2023-05-23T01:02:59.749Z,15.03
2023-05-23T01:05:27.740Z,14.98
2023-05-23T01:07:55.913Z,14.97
2023-05-23T01:10:25.423Z,14.99
2023-05-23T01:13:05.668Z,15.02
2023-05-23T01:15:58.626Z,15.00
2023-05-23T01:18:30.928Z,14.91
2023-05-23T01:21:06.759Z,14.82
2023-05-23T01:23:56.126Z,14.78
2023-05-23T01:26:39.361Z,14.70
2023-05-23T01:29:12.350Z,14.56
2023-05-23T01:31:45.417Z,14.45
2023-05-23T01:34:13.813Z,14.45
2023-05-23T01:36:42.814Z,14.47
2023-05-23T01:39:10.878Z,14.46
2023-05-23T01:41:38.546Z,14.45
2023-05-23T01:44:06.309Z,14.41
2023-05-23T01:46:34.125Z,14.39
2023-05-23T01:49:03.067Z,14.31
2023-05-23T01:51:31.042Z,14.16
2023-05-23T01:53:58.798Z,14.02
2023-05-23T01:56:28.515Z,13.92
2023-05-23T01:58:56.179Z,13.88
2023-05-23T02:01:23.848Z,13.86
2023-05-23T02:03:52.320Z,13.83
2023-05-23T02:06:19.978Z,13.80
2023-05-23T02:08:47.950Z,13.78
2023-05-23T02:11:16.427Z,13.79
2023-05-23T02:13:43.992Z,13.77
2023-05-23T02:16:11.966Z,13.76
2023-05-23T02:18:40.139Z,13.78
2023-05-23T02:21:07.799Z,13.84
2023-05-23T02:23:38.124Z,13.87
2023-05-23T02:26:06.199Z,13.90
2023-05-23T02:28:33.755Z,13.90
2023-05-23T02:31:01.600Z,13.87
2023-05-23T02:33:29.804Z,13.87
2023-05-23T02:35:57.477Z,13.89
2023-05-23T02:38:27.085Z,14.00
2023-05-23T02:40:57.191Z,14.12
2023-05-23T02:43:25.262Z,14.22
2023-05-23T02:45:53.140Z,14.30
2023-05-23T02:48:20.889Z,14.38
2023-05-23T02:50:48.861Z,14.44
2023-05-23T02:53:16.524Z,14.50
2023-05-23T02:55:44.390Z,14.51
2023-05-23T02:58:12.401Z,14.55
2023-05-23T03:00:40.226Z,14.63
2023-05-23T03:03:08.328Z,14.70
2023-05-23T03:05:36.785Z,14.76
2023-05-23T03:08:05.679Z,14.84
2023-05-23T03:10:33.341Z,14.91
2023-05-23T03:13:01.105Z,14.95
2023-05-23T03:15:28.972Z,15.03
2023-05-23T03:17:56.793Z,15.13
2023-05-23T03:20:24.509Z,15.22
2023-05-23T03:22:52.164Z,15.28
2023-05-23T03:25:19.826Z,15.33
2023-05-23T03:27:48.509Z,15.37
2023-05-23T03:30:18.669Z,15.41
2023-05-23T03:32:46.845Z,15.46
2023-05-23T03:35:14.578Z,15.53
2023-05-23T03:37:42.084Z,15.59
2023-05-23T03:40:11.038Z,15.62
2023-05-23T03:42:39.365Z,15.63
2023-05-23T03:45:07.779Z,15.64
2023-05-23T03:47:35.787Z,15.64
2023-05-23T03:50:03.841Z,15.70
2023-05-23T03:52:32.001Z,15.77
2023-05-23T03:55:01.755Z,15.83
2023-05-23T03:57:30.701Z,15.85
2023-05-23T03:59:58.590Z,15.84
2023-05-23T04:02:26.851Z,15.85
2023-05-23T04:04:57.474Z,15.85
2023-05-23T04:07:26.839Z,15.88
2023-05-23T04:09:54.647Z,15.95
2023-05-23T04:12:22.317Z,16.01
2023-05-23T04:14:50.489Z,16.08
2023-05-23T04:17:18.972Z,16.12
2023-05-23T04:19:46.571Z,16.13
2023-05-23T04:22:14.376Z,16.16
2023-05-23T04:24:42.750Z,16.20
2023-05-23T04:27:10.773Z,16.27
2023-05-23T04:29:38.384Z,16.30
2023-05-23T04:32:06.988Z,16.29
2023-05-23T04:34:35.766Z,16.29
2023-05-23T04:37:03.635Z,16.28
2023-05-23T04:39:32.721Z,16.30
2023-05-23T04:42:27.830Z,16.32
2023-05-23T04:45:04.507Z,16.37
2023-05-23T04:47:48.298Z,16.50
2023-05-23T04:50:33.520Z,16.61
2023-05-23T04:53:01.286Z,16.69
2023-05-23T04:55:29.260Z,16.76
2023-05-23T04:57:58.143Z,16.82
2023-05-23T05:00:27.894Z,16.85
2023-05-23T05:02:55.550Z,16.84
2023-05-23T05:05:28.307Z,16.80
2023-05-23T05:07:57.700Z,16.82
2023-05-23T05:10:25.359Z,16.90
2023-05-23T05:12:53.843Z,17.02
2023-05-23T05:15:22.538Z,17.16
2023-05-23T05:17:54.756Z,17.33
2023-05-23T05:20:23.485Z,17.48
2023-05-23T05:22:56.563Z,17.59
2023-05-23T05:25:28.744Z,17.64
2023-05-23T05:27:56.510Z,17.66
2023-05-23T05:30:24.208Z,17.65
2023-05-23T05:33:00.885Z,17.64
2023-05-23T05:35:30.045Z,17.65
2023-05-23T05:37:57.709Z,17.66
2023-05-23T05:40:25.313Z,17.67
2023-05-23T05:42:54.257Z,17.72
2023-05-23T05:45:23.567Z,17.81
2023-05-23T05:47:52.537Z,17.97
2023-05-23T05:50:22.581Z,18.13
2023-05-23T05:52:50.648Z,18.24
2023-05-23T05:55:18.310Z,18.36
2023-05-23T05:57:50.169Z,18.48
2023-05-23T06:00:19.500Z,18.47
2023-05-23T06:02:47.964Z,18.43
2023-05-23T06:05:19.494Z,18.44
2023-05-23T06:07:50.065Z,18.48
2023-05-23T06:10:17.801Z,18.54
2023-05-23T06:12:46.881Z,18.56
2023-05-23T06:15:16.304Z,18.50
2023-05-23T06:17:45.145Z,18.45
2023-05-23T06:20:13.385Z,18.42
2023-05-23T06:22:42.594Z,18.42
2023-05-23T06:25:10.230Z,18.49
2023-05-23T06:27:39.463Z,18.58
2023-05-23T06:30:08.766Z,18.68
2023-05-23T06:32:37.365Z,18.74
2023-05-23T06:35:06.448Z,18.71
2023-05-23T06:37:35.295Z,18.76
2023-05-23T06:40:04.393Z,18.78
2023-05-23T06:42:32.258Z,18.87
2023-05-23T06:45:16.338Z,18.93
2023-05-23T06:47:45.883Z,18.93
2023-05-23T06:50:14.599Z,18.98
2023-05-23T06:52:43.200Z,19.09
2023-05-23T06:55:15.660Z,19.20
2023-05-23T06:57:44.515Z,19.31
2023-05-23T07:00:14.132Z,19.42
2023-05-23T07:02:50.237Z,19.60
2023-05-23T07:05:20.073Z,19.78
2023-05-23T07:07:49.335Z,19.89
2023-05-23T07:10:17.503Z,19.90
2023-05-23T07:12:47.099Z,19.93
2023-05-23T07:15:16.627Z,20.05
2023-05-23T07:17:56.728Z,20.27
2023-05-23T07:20:24.397Z,20.54
2023-05-23T07:22:53.230Z,20.74
2023-05-23T07:25:23.146Z,20.86
2023-05-23T07:27:52.958Z,21.01
2023-05-23T07:30:22.866Z,21.15
2023-05-23T07:32:53.220Z,21.16
2023-05-23T07:35:26.436Z,21.13
2023-05-23T07:37:54.354Z,21.07
2023-05-23T07:40:22.766Z,21.01
2023-05-23T07:42:50.600Z,21.03
2023-05-23T07:45:18.668Z,20.98
2023-05-23T07:47:46.353Z,20.91
2023-05-23T07:50:14.418Z,20.94
2023-05-23T07:52:42.889Z,21.09
2023-05-23T07:55:11.984Z,21.34
2023-05-23T07:57:39.855Z,21.65
2023-05-23T08:00:12.515Z,21.91
2023-05-23T08:02:42.788Z,22.13
2023-05-23T08:05:14.823Z,22.32
2023-05-23T08:07:42.481Z,22.46
2023-05-23T08:10:10.354Z,22.58
2023-05-23T08:12:38.935Z,22.64
2023-05-23T08:15:10.084Z,22.58
2023-05-23T08:17:43.817Z,22.54
2023-05-23T08:20:12.571Z,22.55
2023-05-23T08:22:40.247Z,22.59
2023-05-23T08:25:09.331Z,22.58
2023-05-23T08:27:38.330Z,22.55
2023-05-23T08:30:13.668Z,22.55
2023-05-23T08:32:41.269Z,22.54
2023-05-23T08:35:09.096Z,22.54
2023-05-23T08:37:37.989Z,22.59
2023-05-23T08:40:08.970Z,22.70
2023-05-23T08:42:43.791Z,22.90
2023-05-23T08:45:12.959Z,23.09
2023-05-23T08:47:46.112Z,23.21
2023-05-23T08:50:20.098Z,23.33
2023-05-23T08:52:55.940Z,23.48
2023-05-23T08:55:26.636Z,23.60
2023-05-23T08:57:55.032Z,23.67
2023-05-23T09:00:30.673Z,23.79
2023-05-23T09:02:58.473Z,23.97
2023-05-23T09:05:56.789Z,24.16
2023-05-23T09:08:28.378Z,24.26
2023-05-23T09:10:59.463Z,24.40
2023-05-23T09:13:29.645Z,24.48
2023-05-23T09:16:00.570Z,24.51
2023-05-23T09:18:42.330Z,24.59
2023-05-23T09:21:12.604Z,24.69
2023-05-23T09:23:48.586Z,24.86
2023-05-23T09:26:16.831Z,24.97
2023-05-23T09:28:44.706Z,25.00
2023-05-23T09:31:13.205Z,24.91
2023-05-23T09:33:49.631Z,24.67
2023-05-23T09:36:18.651Z,24.35
2023-05-23T09:38:49.048Z,24.12
2023-05-23T09:41:16.831Z,23.91
2023-05-23T09:43:55.008Z,23.77
2023-05-23T09:46:28.057Z,23.73
2023-05-23T09:48:57.398Z,23.76
2023-05-23T09:51:26.340Z,23.70
2023-05-23T09:53:54.398Z,23.55
2023-05-23T09:56:23.810Z,23.43
2023-05-23T09:58:52.286Z,23.34
2023-05-23T10:01:20.000Z,23.23
2023-05-23T10:04:00.194Z,23.13
2023-05-23T10:06:37.270Z,23.05
2023-05-23T10:09:06.080Z,23.11
2023-05-23T10:11:34.299Z,23.29
2023-05-23T10:14:03.956Z,23.49
2023-05-23T10:16:44.160Z,23.69
2023-05-23T10:19:36.118Z,23.93
2023-05-23T10:22:08.017Z,24.16
2023-05-23T10:24:36.096Z,24.32
2023-05-23T10:27:03.941Z,24.43
2023-05-23T10:29:34.747Z,24.44
2023-05-23T10:32:06.028Z,24.38
2023-05-23T10:34:53.317Z,24.27
2023-05-23T10:37:36.889Z,24.11
2023-05-23T10:40:22.162Z,24.05
2023-05-23T10:42:57.095Z,24.20
2023-05-23T10:48:43.584Z,24.82
2023-05-23T10:51:14.802Z,25.22
2023-05-23T10:53:45.244Z,25.47
2023-05-23T10:56:25.553Z,25.69
2023-05-23T10:58:55.981Z,25.95
2023-05-23T11:01:24.613Z,26.22
2023-05-23T11:03:56.332Z,26.48
2023-05-23T11:06:35.462Z,26.68
2023-05-23T11:09:08.481Z,26.89
2023-05-23T11:11:55.197Z,27.09
2023-05-23T11:14:38.562Z,27.23
2023-05-23T11:17:13.803Z,27.16
2023-05-23T11:19:42.711Z,27.02
2023-05-23T11:22:12.726Z,27.03
2023-05-23T11:24:53.290Z,27.03
2023-05-23T11:27:41.229Z,26.91
2023-05-23T11:30:15.452Z,26.70
2023-05-23T11:32:50.343Z,26.48
2023-05-23T11:35:17.948Z,26.27
2023-05-23T11:37:45.922Z,26.01
2023-05-23T11:40:27.625Z,25.77
2023-05-23T11:42:56.557Z,25.61
2023-05-23T11:45:24.263Z,25.56
2023-05-23T11:47:52.155Z,25.66
2023-05-23T11:50:21.122Z,25.90
2023-05-23T11:52:52.179Z,26.19
2023-05-23T11:55:21.760Z,26.54
2023-05-23T11:57:50.551Z,26.91
2023-05-23T12:00:19.244Z,27.18
2023-05-23T12:02:49.832Z,27.32
2023-05-23T12:05:18.374Z,27.41
2023-05-23T12:07:48.734Z,27.53
2023-05-23T12:10:22.555Z,27.73
2023-05-23T12:12:51.839Z,28.02
2023-05-23T12:15:20.883Z,28.37
2023-05-23T12:17:49.915Z,28.66
2023-05-23T12:20:18.364Z,28.71
2023-05-23T12:22:46.121Z,28.64
2023-05-23T12:25:13.800Z,28.76
2023-05-23T12:27:44.345Z,28.96
2023-05-23T12:30:17.466Z,29.08
2023-05-23T12:32:47.027Z,29.19
2023-05-23T12:35:17.801Z,29.33
2023-05-23T12:37:49.503Z,29.47
2023-05-23T12:40:18.666Z,29.62
2023-05-23T12:42:53.215Z,29.70
2023-05-23T12:45:24.162Z,29.77
2023-05-23T12:47:54.202Z,29.81
2023-05-23T12:50:23.389Z,29.80
2023-05-23T12:52:52.587Z,29.80
2023-05-23T12:55:20.350Z,29.85
2023-05-23T12:57:48.631Z,29.81
2023-05-23T13:00:18.177Z,29.68
2023-05-23T13:02:46.610Z,29.41
2023-05-23T13:05:14.389Z,29.07
2023-05-23T13:07:42.773Z,28.85
2023-05-23T13:10:11.017Z,28.77
2023-05-23T13:12:38.899Z,28.83
2023-05-23T13:15:07.885Z,28.95
2023-05-23T13:17:35.665Z,29.15
2023-05-23T13:20:05.426Z,29.48
2023-05-23T13:22:34.366Z,29.71
2023-05-23T13:25:02.049Z,29.91
2023-05-23T13:27:30.228Z,30.07
2023-05-23T13:29:57.976Z,30.39
2023-05-23T13:32:26.038Z,30.69
2023-05-23T13:34:53.659Z,31.05
2023-05-23T13:37:21.260Z,31.45
2023-05-23T13:39:48.934Z,31.72
2023-05-23T13:42:16.689Z,31.96
2023-05-23T13:44:45.067Z,32.06
2023-05-23T13:47:13.753Z,32.07
2023-05-23T13:49:42.235Z,32.17
2023-05-23T13:52:10.005Z,32.34
2023-05-23T13:54:37.662Z,32.51
2023-05-23T13:57:05.941Z,32.58
2023-05-23T13:59:34.025Z,32.40
2023-05-23T14:02:01.706Z,32.04
2023-05-23T14:04:29.538Z,31.80
2023-05-23T14:06:57.205Z,31.74
2023-05-23T14:09:24.977Z,31.70
2023-05-23T14:11:52.639Z,31.74
2023-05-23T14:14:20.395Z,31.61
2023-05-23T14:16:50.236Z,31.31
2023-05-23T14:19:18.010Z,31.10
2023-05-23T14:21:45.941Z,30.94
2023-05-23T14:24:13.609Z,30.74
2023-05-23T14:26:41.119Z,30.49
2023-05-23T14:29:08.731Z,30.16
2023-05-23T14:31:36.531Z,29.77
2023-05-23T14:34:04.252Z,29.46
2023-05-23T14:36:32.326Z,29.14
2023-05-23T14:39:01.521Z,28.75
2023-05-23T14:41:29.293Z,28.38
2023-05-23T14:43:56.991Z,28.19
2023-05-23T14:46:24.641Z,28.18
2023-05-23T14:48:52.281Z,28.39
2023-05-23T14:51:34.651Z,28.78
2023-05-23T14:54:07.977Z,29.36
2023-05-23T14:56:38.413Z,29.86
2023-05-23T14:59:06.071Z,30.18
2023-05-23T15:01:33.670Z,30.35
2023-05-23T15:04:01.938Z,30.39
2023-05-23T15:06:29.778Z,30.31
2023-05-23T15:08:57.545Z,30.10
2023-05-23T15:11:27.307Z,29.73
2023-05-23T15:13:55.358Z,29.37
2023-05-23T15:16:23.577Z,29.08
2023-05-23T15:18:51.388Z,28.75
2023-05-23T15:21:19.128Z,28.32
2023-05-23T15:23:46.824Z,27.93
2023-05-23T15:26:14.466Z,27.76
2023-05-23T15:28:42.321Z,27.71
2023-05-23T15:31:10.289Z,27.75
2023-05-23T15:33:37.791Z,27.68
2023-05-23T15:36:05.509Z,27.47
2023-05-23T15:38:33.069Z,27.38
2023-05-23T15:41:01.654Z,27.46
2023-05-23T15:43:29.419Z,27.55
2023-05-23T15:45:57.137Z,27.57
2023-05-23T15:48:24.850Z,27.55
2023-05-23T15:50:52.718Z,27.50
2023-05-23T15:53:21.194Z,27.56
2023-05-23T15:55:48.859Z,27.64
2023-05-23T15:58:16.529Z,27.83
2023-05-23T16:00:44.485Z,28.07
2023-05-23T16:03:12.256Z,28.17
2023-05-23T16:05:40.967Z,28.20
2023-05-23T16:08:09.835Z,28.25
2023-05-23T16:10:37.494Z,28.34
2023-05-23T16:13:05.602Z,28.43
2023-05-23T16:15:33.548Z,28.51
2023-05-23T16:18:02.304Z,28.55
2023-05-23T16:20:30.022Z,28.49
2023-05-23T16:22:57.654Z,28.25
2023-05-23T16:25:25.517Z,28.01
2023-05-23T16:27:53.286Z,27.71
2023-05-23T16:30:20.962Z,27.35
2023-05-23T16:32:49.137Z,26.98
2023-05-23T16:35:16.886Z,26.66
2023-05-23T16:37:44.859Z,26.33
2023-05-23T16:40:12.933Z,26.02
2023-05-23T16:42:41.013Z,25.74
2023-05-23T16:45:08.969Z,25.44
2023-05-23T16:47:36.793Z,25.10
2023-05-23T16:50:05.219Z,24.78
2023-05-23T16:52:32.936Z,24.49
2023-05-23T16:55:01.057Z,24.21
2023-05-23T16:57:28.614Z,23.94
2023-05-23T16:59:56.379Z,23.67
2023-05-23T17:02:24.073Z,23.45
2023-05-23T17:04:52.030Z,23.23
2023-05-23T17:07:20.088Z,22.99
2023-05-23T17:09:47.760Z,22.76
2023-05-23T17:12:15.796Z,22.52
2023-05-23T17:14:43.587Z,22.28
2023-05-23T17:17:11.464Z,22.06
2023-05-23T17:19:39.271Z,21.84
2023-05-23T17:22:07.969Z,21.70
2023-05-23T17:24:37.002Z,21.55
2023-05-23T17:27:05.682Z,21.44
2023-05-23T17:29:33.298Z,21.40
2023-05-23T17:32:01.171Z,21.40
2023-05-23T17:34:29.287Z,21.36
2023-05-23T17:36:57.352Z,21.34
2023-05-23T17:39:25.133Z,21.31
2023-05-23T17:41:52.879Z,21.23
2023-05-23T17:44:20.862Z,21.12
2023-05-23T17:46:48.581Z,21.02
2023-05-23T17:49:16.545Z,20.88
2023-05-23T17:51:44.369Z,20.74
2023-05-23T17:54:12.015Z,20.69
2023-05-23T17:56:39.787Z,20.68
2023-05-23T17:59:07.664Z,20.72
2023-05-23T18:01:35.347Z,20.74
2023-05-23T18:04:03.305Z,20.73
2023-05-23T18:06:31.142Z,20.74
2023-05-23T18:08:58.912Z,20.76
2023-05-23T18:11:28.270Z,20.75
2023-05-23T18:13:55.870Z,20.72
2023-05-23T18:16:23.640Z,20.66
2023-05-23T18:18:51.847Z,20.63
2023-05-23T18:21:19.472Z,20.59
2023-05-23T18:23:47.549Z,20.49
2023-05-23T18:26:15.513Z,20.36
2023-05-23T18:28:43.082Z,20.22
2023-05-23T18:31:11.298Z,20.04
2023-05-23T18:33:38.843Z,19.84
2023-05-23T18:36:07.496Z,19.65
2023-05-23T18:38:36.226Z,19.51
2023-05-23T18:41:03.946Z,19.38
2023-05-23T18:43:31.504Z,19.27
2023-05-23T18:45:59.178Z,19.13
2023-05-23T18:48:28.882Z,18.98
2023-05-23T18:50:56.544Z,18.82
2023-05-23T18:53:24.313Z,18.65
2023-05-23T18:55:52.174Z,18.50
2023-05-23T18:58:19.946Z,18.41
2023-05-23T19:00:48.114Z,18.32
2023-05-23T19:03:17.202Z,18.18
2023-05-23T19:05:45.083Z,18.05
2023-05-23T19:08:12.740Z,17.95
2023-05-23T19:10:40.489Z,17.87
2023-05-23T19:13:08.373Z,17.85
2023-05-23T19:15:36.443Z,17.81
2023-05-23T19:18:04.246Z,17.74
2023-05-23T19:20:32.177Z,17.68
2023-05-23T19:23:01.175Z,17.66
2023-05-23T19:25:28.847Z,17.57
2023-05-23T19:27:56.497Z,17.48
2023-05-23T19:30:24.679Z,17.45
2023-05-23T19:32:52.360Z,17.39
2023-05-23T19:35:20.247Z,17.33
2023-05-23T19:37:49.603Z,17.28
2023-05-23T19:40:17.577Z,17.21
2023-05-23T19:42:45.236Z,17.15
2023-05-23T19:45:13.826Z,17.12
2023-05-23T19:47:41.712Z,17.13
2023-05-23T19:50:13.039Z,17.13
2023-05-23T19:52:41.735Z,17.10
2023-05-23T19:55:10.559Z,17.04
2023-05-23T19:57:38.283Z,16.96
2023-05-23T20:00:07.204Z,16.88
2023-05-23T20:02:34.870Z,16.85
2023-05-23T20:05:02.593Z,16.84
2023-05-23T20:07:30.256Z,16.83
2023-05-23T20:09:57.880Z,16.79
2023-05-23T20:12:25.588Z,16.74
2023-05-23T20:14:53.258Z,16.70
2023-05-23T20:17:21.180Z,16.69
2023-05-23T20:19:49.389Z,16.70
2023-05-23T20:22:17.056Z,16.72
2023-05-23T20:24:44.817Z,16.75
2023-05-23T20:27:12.598Z,16.75
2023-05-23T20:29:40.243Z,16.73
2023-05-23T20:32:08.012Z,16.70
2023-05-23T20:34:35.980Z,16.67
2023-05-23T20:37:04.062Z,16.66
2023-05-23T20:39:31.738Z,16.66
2023-05-23T20:42:00.002Z,16.63
2023-05-23T20:44:27.651Z,16.58
2023-05-23T20:46:57.394Z,16.52
2023-05-23T20:49:25.230Z,16.49
2023-05-23T20:51:53.198Z,16.47
2023-05-23T20:54:21.273Z,16.47
2023-05-23T20:56:48.944Z,16.48
2023-05-23T20:59:16.702Z,16.46
2023-05-23T21:01:44.502Z,16.40
2023-05-23T21:04:12.330Z,16.32
2023-05-23T21:06:39.991Z,16.28
2023-05-23T21:09:09.188Z,16.27
2023-05-23T21:11:36.858Z,16.26
2023-05-23T21:14:04.515Z,16.20
2023-05-23T21:16:33.332Z,16.14
2023-05-23T21:19:01.180Z,16.06
2023-05-23T21:21:28.732Z,16.01
2023-05-23T21:23:56.500Z,15.97
2023-05-23T21:26:24.158Z,15.93
2023-05-23T21:28:51.720Z,15.87
2023-05-23T21:31:26.611Z,15.82
2023-05-23T21:34:11.043Z,15.75
2023-05-23T21:36:46.661Z,15.70
2023-05-23T21:39:14.215Z,15.70
2023-05-23T21:41:41.776Z,15.70
2023-05-23T21:44:09.333Z,15.68
2023-05-23T21:46:37.548Z,15.61
2023-05-23T21:49:05.377Z,15.56
2023-05-23T21:51:32.935Z,15.55
2023-05-23T21:54:01.010Z,15.57
2023-05-23T21:56:29.097Z,15.60
2023-05-23T21:58:56.745Z,15.63
2023-05-23T22:01:24.473Z,15.64
2023-05-23T22:03:52.292Z,15.62
2023-05-23T22:06:19.832Z,15.63
2023-05-23T22:08:47.409Z,15.66
2023-05-23T22:11:15.412Z,15.70
2023-05-23T22:13:43.230Z,15.70
2023-05-23T22:16:10.940Z,15.67
2023-05-23T22:18:51.424Z,15.62
2023-05-23T22:21:19.745Z,15.57
2023-05-23T22:23:47.297Z,15.55
2023-05-23T22:26:14.961Z,15.52
2023-05-23T22:28:42.623Z,15.45
2023-05-23T22:31:12.729Z,15.36
2023-05-23T22:33:41.376Z,15.24
2023-05-23T22:36:09.938Z,15.17
2023-05-23T22:38:38.090Z,15.12
2023-05-23T22:41:05.642Z,15.05
2023-05-23T22:43:33.353Z,14.96
2023-05-23T22:46:01.083Z,14.85
2023-05-23T22:48:28.940Z,14.75
2023-05-23T22:50:57.318Z,14.69
2023-05-23T22:53:25.088Z,14.65
2023-05-23T22:55:52.584Z,14.63
2023-05-23T22:58:20.305Z,14.60
2023-05-23T23:00:47.992Z,14.54
2023-05-23T23:03:16.112Z,14.45
2023-05-23T23:07:24.159Z,14.32
2023-05-23T23:09:51.721Z,14.24
2023-05-23T23:12:19.385Z,14.22
2023-05-23T23:14:47.764Z,14.20
2023-05-23T23:17:15.461Z,14.17
2023-05-23T23:19:43.304Z,14.10
2023-05-23T23:22:11.361Z,14.04
2023-05-23T23:24:39.932Z,13.98
2023-05-23T23:27:07.712Z,13.97
2023-05-23T23:29:35.370Z,13.95
2023-05-23T23:32:03.649Z,13.91
2023-05-23T23:34:33.466Z,13.87
2023-05-23T23:37:01.433Z,13.85
2023-05-23T23:39:29.099Z,13.85
2023-05-23T23:41:56.755Z,13.89
2023-05-23T23:44:24.317Z,13.96
2023-05-23T23:46:51.908Z,13.99
2023-05-23T23:49:19.943Z,14.01
2023-05-23T23:51:47.609Z,13.99
2023-05-23T23:54:15.272Z,13.95
2023-05-23T23:56:42.930Z,13.93
2023-05-23T23:59:10.796Z,13.93
